createdAt,value
2023-01-20T00:00:36.324Z,3.85
2023-01-20T00:01:40.758Z,4.90
2023-01-20T00:02:43.444Z,3.28
2023-01-20T00:03:45.783Z,7.80
2023-01-20T00:04:49.406Z,6.63
2023-01-20T00:05:52.976Z,7.77
2023-01-20T00:06:55.543Z,7.13
2023-01-20T00:07:57.839Z,4.95
2023-01-20T00:09:01.939Z,7.78
2023-01-20T00:10:07.667Z,7.07
2023-01-20T00:11:12.964Z,5.90
2023-01-20T00:12:15.050Z,11.30
2023-01-20T00:13:17.414Z,7.03
2023-01-20T00:14:19.718Z,3.53
2023-01-20T00:15:22.148Z,4.85
2023-01-20T00:16:25.192Z,3.77
2023-01-20T00:17:29.041Z,4.75
2023-01-20T00:18:32.958Z,10.13
2023-01-20T00:19:35.165Z,7.13
2023-01-20T00:20:37.434Z,2.33
2023-01-20T00:21:40.004Z,4.90
2023-01-20T00:22:42.253Z,4.45
2023-01-20T00:23:45.967Z,1.52
2023-01-20T00:24:48.435Z,6.05
2023-01-20T00:25:50.779Z,3.85
2023-01-20T00:26:53.346Z,3.90
2023-01-20T00:27:55.478Z,2.70
2023-01-20T00:28:57.705Z,4.97
2023-01-20T00:30:00.254Z,2.40
2023-01-20T00:31:19.083Z,4.63
2023-01-20T00:32:24.219Z,4.25
2023-01-20T00:33:26.941Z,3.67
2023-01-20T00:34:29.376Z,3.38
2023-01-20T00:35:31.707Z,6.68
2023-01-20T00:36:33.821Z,2.92
2023-01-20T00:37:36.241Z,2.63
2023-01-20T00:52:03.894Z,1.20
2023-01-20T00:53:05.736Z,3.50
2023-01-20T00:54:07.461Z,1.63
2023-01-20T00:55:09.747Z,1.63
2023-01-20T00:56:11.784Z,1.58
2023-01-20T00:57:13.525Z,1.77
2023-01-20T00:58:16.042Z,2.50
2023-01-20T00:59:17.808Z,1.20
2023-01-20T01:00:19.766Z,0.83
2023-01-20T01:01:22.959Z,2.95
2023-01-20T01:02:24.803Z,1.90
2023-01-20T01:03:27.369Z,1.13
2023-01-20T01:04:29.270Z,1.60
2023-01-20T01:05:31.668Z,1.17
2023-01-20T01:06:33.394Z,2.50
2023-01-20T01:07:35.140Z,3.10
2023-01-20T01:08:36.917Z,2.67
2023-01-20T01:09:38.890Z,2.83
2023-01-20T01:10:40.563Z,2.30
2023-01-20T01:11:42.363Z,2.60
2023-01-20T01:12:44.211Z,0.82
2023-01-20T01:13:46.022Z,1.65
2023-01-20T01:14:47.812Z,1.52
2023-01-20T01:15:50.343Z,2.90
2023-01-20T01:16:52.062Z,1.58
2023-01-20T01:17:54.763Z,2.42
2023-01-20T01:18:56.527Z,1.20
2023-01-20T01:19:58.304Z,1.75
2023-01-20T01:21:00.122Z,2.43
2023-01-20T01:22:01.998Z,2.40
2023-01-20T01:23:06.694Z,2.85
2023-01-20T01:24:08.532Z,4.25
2023-01-20T01:25:10.344Z,1.10
2023-01-20T01:26:12.073Z,1.60
2023-01-20T01:27:14.259Z,4.93
2023-01-20T01:28:16.015Z,3.10
2023-01-20T01:29:17.739Z,1.42
2023-01-20T01:30:19.598Z,3.00
2023-01-20T01:31:21.484Z,1.17
2023-01-20T01:32:24.026Z,1.83
2023-01-20T01:33:25.678Z,1.92
2023-01-20T01:34:27.335Z,1.75
2023-01-20T01:35:29.080Z,2.35
2023-01-20T01:36:30.815Z,3.40
2023-01-20T01:37:32.484Z,2.30
2023-01-20T01:38:34.289Z,1.20
2023-01-20T01:39:36.007Z,1.25
2023-01-20T01:40:37.719Z,1.30
2023-01-20T01:41:39.422Z,1.07
2023-01-20T01:42:42.798Z,1.10
2023-01-20T01:44:09.215Z,2.65
2023-01-20T01:45:11.159Z,2.53
2023-01-20T01:46:13.276Z,1.35
2023-01-20T01:47:14.989Z,2.25
2023-01-20T01:48:20.579Z,1.60
2023-01-20T01:49:33.455Z,2.60
2023-01-20T01:50:53.317Z,3.17
2023-01-20T01:52:09.390Z,4.75
2023-01-20T01:53:12.727Z,2.70
2023-01-20T01:54:22.819Z,1.23
2023-01-20T01:55:29.660Z,1.27
2023-01-20T01:56:32.286Z,2.50
2023-01-20T01:57:35.380Z,9.73
2023-01-20T01:58:41.472Z,1.92
2023-01-20T01:59:44.216Z,12.50
2023-01-20T02:00:47.387Z,1.95
2023-01-20T02:01:52.483Z,3.55
2023-01-20T02:02:56.034Z,5.28
2023-01-20T02:04:13.947Z,34.93
2023-01-20T02:05:19.188Z,9.73
2023-01-20T02:06:23.461Z,2.95
2023-01-20T02:07:26.940Z,1.92
2023-01-20T02:08:28.677Z,2.25
2023-01-20T02:09:31.403Z,0.95
2023-01-20T02:10:33.166Z,2.53
2023-01-20T02:11:50.656Z,15.98
2023-01-20T02:12:52.673Z,5.60
2023-01-20T02:13:54.591Z,6.85
2023-01-20T02:14:59.734Z,7.70
2023-01-20T02:16:26.004Z,3.03
2023-01-20T02:17:35.603Z,1.20
2023-01-20T02:19:14.682Z,3.33
2023-01-20T02:20:48.340Z,3.47
2023-01-20T02:22:08.858Z,11.05
2023-01-20T02:23:43.842Z,3.10
2023-01-20T02:25:16.276Z,1.83
2023-01-20T02:26:50.359Z,0.93
2023-01-20T02:28:29.576Z,1.17
2023-01-20T02:30:07.822Z,5.43
2023-01-20T02:31:33.923Z,4.25
2023-01-20T02:32:44.460Z,1.25
2023-01-20T02:33:52.256Z,0.90
2023-01-20T02:34:59.603Z,1.33
2023-01-20T02:36:12.182Z,1.45
2023-01-20T02:37:18.425Z,1.75
2023-01-20T02:39:03.440Z,0.80
2023-01-20T02:40:23.260Z,0.82
2023-01-20T02:41:43.443Z,1.10
2023-01-20T02:42:50.923Z,1.63
2023-01-20T02:44:04.626Z,2.80
2023-01-20T02:45:45.138Z,2.20
2023-01-20T02:47:11.167Z,1.10
2023-01-20T02:48:27.830Z,2.22
2023-01-20T02:49:55.535Z,1.13
2023-01-20T02:51:29.640Z,2.40
2023-01-20T02:52:44.383Z,4.60
2023-01-20T02:53:58.865Z,4.40
2023-01-20T02:55:09.712Z,4.03
2023-01-20T02:56:12.850Z,4.80
2023-01-20T02:57:18.998Z,1.98
2023-01-20T02:58:45.956Z,1.55
2023-01-20T02:59:52.606Z,0.60
2023-01-20T03:01:01.308Z,2.40
2023-01-20T03:02:15.789Z,1.88
2023-01-20T03:03:23.466Z,2.40
2023-01-20T03:04:29.720Z,1.90
2023-01-20T03:05:36.111Z,1.05
2023-01-20T03:06:43.993Z,0.60
2023-01-20T03:07:48.733Z,3.07
2023-01-20T03:08:53.166Z,1.00
2023-01-20T03:09:58.661Z,0.77
2023-01-20T03:11:06.585Z,0.98
2023-01-20T03:12:16.772Z,1.75
2023-01-20T03:13:28.005Z,0.88
2023-01-20T03:14:30.701Z,1.20
2023-01-20T03:15:58.100Z,1.73
2023-01-20T03:17:01.245Z,0.57
2023-01-20T03:18:03.048Z,2.22
2023-01-20T03:19:04.839Z,1.57
2023-01-20T03:20:07.425Z,1.05
2023-01-20T03:21:10.770Z,1.73
2023-01-20T03:22:12.504Z,2.20
2023-01-20T03:23:14.236Z,1.33
2023-01-20T03:24:16.187Z,1.75
2023-01-20T03:25:20.003Z,5.55
2023-01-20T03:26:23.532Z,0.95
2023-01-20T03:27:26.564Z,1.52
2023-01-20T03:28:28.301Z,2.83
2023-01-20T03:29:30.049Z,0.93
2023-01-20T03:30:31.986Z,1.25
2023-01-20T03:31:41.414Z,0.75
2023-01-20T03:32:47.482Z,0.52
2023-01-20T03:33:51.847Z,1.88
2023-01-20T03:34:57.126Z,1.02
2023-01-20T03:35:59.117Z,0.63
2023-01-20T03:37:02.540Z,0.60
2023-01-20T03:38:04.426Z,1.58
2023-01-20T03:39:06.433Z,1.23
2023-01-20T03:40:09.171Z,1.27
2023-01-20T03:41:17.237Z,0.95
2023-01-20T03:42:46.789Z,1.83
2023-01-20T03:44:12.319Z,1.48
2023-01-20T03:45:36.887Z,0.63
2023-01-20T03:47:02.613Z,1.20
2023-01-20T03:48:31.705Z,0.47
2023-01-20T03:49:53.012Z,1.50
2023-01-20T03:51:08.712Z,0.95
2023-01-20T03:52:47.908Z,0.70
2023-01-20T03:53:55.825Z,0.57
2023-01-20T03:55:05.112Z,1.35
2023-01-20T03:56:14.718Z,3.25
2023-01-20T03:57:24.417Z,5.68
2023-01-20T03:58:43.178Z,1.27
2023-01-20T03:59:48.524Z,1.67
2023-01-20T04:00:52.210Z,1.67
2023-01-20T04:01:54.838Z,3.08
2023-01-20T04:02:58.727Z,2.83
2023-01-20T04:04:02.840Z,2.90
2023-01-20T04:05:07.378Z,3.17
2023-01-20T04:06:12.463Z,2.22
2023-01-20T04:07:20.235Z,2.03
2023-01-20T04:08:25.918Z,3.25
2023-01-20T04:09:33.683Z,6.10
2023-01-20T04:10:40.107Z,12.25
2023-01-20T04:11:41.884Z,16.45
2023-01-20T04:12:43.680Z,17.83
2023-01-20T04:13:45.671Z,4.38
2023-01-20T04:14:47.366Z,2.05
2023-01-20T04:15:49.163Z,2.07
2023-01-20T04:16:54.286Z,4.35
2023-01-20T04:17:55.959Z,16.25
2023-01-20T04:18:57.677Z,4.95
2023-01-20T04:20:03.674Z,4.82
2023-01-20T04:21:05.877Z,2.55
2023-01-20T04:22:25.700Z,1.13
2023-01-20T04:23:39.390Z,2.08
2023-01-20T04:24:43.658Z,0.90
2023-01-20T04:25:45.438Z,2.22
2023-01-20T04:26:47.414Z,1.20
2023-01-20T04:27:49.130Z,1.55
2023-01-20T04:28:50.878Z,1.35
2023-01-20T04:29:52.857Z,1.50
2023-01-20T04:30:54.690Z,3.00
2023-01-20T04:32:01.242Z,2.53
2023-01-20T04:33:03.074Z,2.80
2023-01-20T04:34:05.500Z,5.63
2023-01-20T04:35:07.585Z,4.90
2023-01-20T04:36:09.434Z,2.15
2023-01-20T04:37:11.240Z,3.93
2023-01-20T04:38:13.060Z,2.17
2023-01-20T04:39:14.810Z,3.83
2023-01-20T04:40:16.784Z,3.45
2023-01-20T04:41:18.573Z,3.42
2023-01-20T04:42:20.290Z,3.75
2023-01-20T04:43:21.971Z,3.08
2023-01-20T04:44:23.781Z,3.40
2023-01-20T04:45:25.546Z,3.33
2023-01-20T04:46:27.245Z,3.50
2023-01-20T04:47:33.117Z,4.53
2023-01-20T04:48:34.959Z,3.50
2023-01-20T04:49:36.758Z,3.17
2023-01-20T04:50:40.076Z,2.17
2023-01-20T04:51:41.848Z,2.00
2023-01-20T04:52:43.892Z,2.58
2023-01-20T04:53:45.716Z,3.05
2023-01-20T04:54:47.512Z,1.65
2023-01-20T04:55:49.155Z,2.80
2023-01-20T04:56:51.245Z,4.07
2023-01-20T04:57:52.973Z,3.23
2023-01-20T04:58:54.675Z,3.22
2023-01-20T04:59:56.479Z,3.25
2023-01-20T05:01:02.145Z,4.38
2023-01-20T05:02:04.043Z,4.63
2023-01-20T05:03:05.818Z,3.72
2023-01-20T05:04:07.673Z,3.33
2023-01-20T05:05:09.563Z,3.33
2023-01-20T05:06:11.838Z,3.15
2023-01-20T05:07:13.614Z,2.83
2023-01-20T05:08:15.485Z,4.83
2023-01-20T05:09:17.287Z,3.75
2023-01-20T05:10:19.333Z,4.40
2023-01-20T05:11:21.050Z,1.58
2023-01-20T05:12:22.746Z,2.60
2023-01-20T05:13:24.567Z,2.25
2023-01-20T05:14:26.282Z,3.05
2023-01-20T05:15:28.623Z,3.70
2023-01-20T05:16:30.439Z,3.85
2023-01-20T05:17:32.123Z,6.38
2023-01-20T05:18:34.344Z,7.20
2023-01-20T05:19:36.060Z,5.32
2023-01-20T05:20:37.907Z,5.72
2023-01-20T05:21:39.682Z,5.68
2023-01-20T05:22:41.481Z,6.93
2023-01-20T05:23:43.268Z,7.43
2023-01-20T05:24:45.043Z,6.72
2023-01-20T05:25:53.809Z,6.38
2023-01-20T05:26:55.610Z,5.75
2023-01-20T05:27:59.167Z,7.45
2023-01-20T05:29:01.115Z,7.00
2023-01-20T05:30:05.033Z,8.88
2023-01-20T05:31:07.014Z,5.80
2023-01-20T05:32:08.780Z,9.48
2023-01-20T05:33:11.008Z,6.40
2023-01-20T05:34:12.995Z,6.75
2023-01-20T05:35:14.919Z,6.47
2023-01-20T05:36:16.877Z,5.80
2023-01-20T05:37:18.896Z,7.13
2023-01-20T05:38:20.585Z,5.20
2023-01-20T05:39:22.299Z,5.17
2023-01-20T05:40:24.094Z,6.68
2023-01-20T05:41:25.808Z,7.68
2023-01-20T05:42:27.522Z,5.57
2023-01-20T05:43:29.236Z,4.20
2023-01-20T05:44:31.056Z,3.50
2023-01-20T05:45:32.786Z,4.57
2023-01-20T05:46:34.514Z,5.63
2023-01-20T05:47:36.300Z,5.28
2023-01-20T05:48:38.003Z,6.47
2023-01-20T05:49:39.936Z,5.60
2023-01-20T05:50:41.820Z,5.30
2023-01-20T05:51:43.539Z,4.22
2023-01-20T05:52:45.303Z,6.07
2023-01-20T05:53:47.097Z,5.47
2023-01-20T05:54:48.901Z,6.28
2023-01-20T05:55:58.231Z,8.18
2023-01-20T05:57:00.005Z,9.05
2023-01-20T05:58:02.811Z,9.02
2023-01-20T05:59:04.602Z,8.75
2023-01-20T06:00:08.751Z,7.20
2023-01-20T06:01:13.707Z,7.32
2023-01-20T06:02:15.449Z,4.70
2023-01-20T06:03:17.196Z,7.05
2023-01-20T06:04:18.902Z,6.88
2023-01-20T06:05:20.606Z,4.05
2023-01-20T06:06:22.475Z,5.60
2023-01-20T06:07:24.121Z,6.47
2023-01-20T06:08:26.042Z,5.90
2023-01-20T06:09:27.808Z,5.78
2023-01-20T06:10:29.604Z,7.07
2023-01-20T06:11:31.335Z,6.32
2023-01-20T06:12:33.039Z,5.70
2023-01-20T06:13:34.771Z,6.05
2023-01-20T06:14:36.555Z,6.55
2023-01-20T06:15:38.303Z,6.00
2023-01-20T06:16:40.087Z,9.10
2023-01-20T06:17:41.801Z,9.32
2023-01-20T06:18:43.707Z,10.00
2023-01-20T06:19:45.403Z,8.02
2023-01-20T06:20:47.149Z,5.73
2023-01-20T06:21:48.963Z,21.05
2023-01-20T06:22:55.279Z,39.65
2023-01-20T06:23:56.993Z,26.33
2023-01-20T06:24:58.742Z,21.58
2023-01-20T06:26:06.352Z,23.27
2023-01-20T06:27:08.054Z,13.75
2023-01-20T06:28:09.857Z,6.50
2023-01-20T06:29:11.762Z,6.72
2023-01-20T06:30:13.684Z,8.40
2023-01-20T06:31:17.163Z,8.13
2023-01-20T06:32:19.240Z,6.65
2023-01-20T06:33:20.989Z,11.13
2023-01-20T06:34:22.679Z,11.80
2023-01-20T06:35:25.243Z,11.93
2023-01-20T06:36:27.062Z,11.02
2023-01-20T06:37:28.931Z,10.43
2023-01-20T06:38:33.448Z,16.92
2023-01-20T06:39:35.355Z,20.38
2023-01-20T06:40:37.028Z,21.85
2023-01-20T06:41:38.717Z,17.53
2023-01-20T06:42:40.621Z,11.38
2023-01-20T06:43:42.393Z,10.68
2023-01-20T06:44:44.177Z,7.95
2023-01-20T06:45:45.967Z,8.50
2023-01-20T06:46:48.440Z,8.68
2023-01-20T06:47:50.234Z,12.18
2023-01-20T06:48:52.656Z,18.08
2023-01-20T06:49:54.377Z,16.65
2023-01-20T06:51:06.449Z,17.13
2023-01-20T06:52:08.194Z,19.87
2023-01-20T06:53:09.854Z,19.05
2023-01-20T06:54:11.626Z,21.60
2023-01-20T06:55:13.688Z,24.77
2023-01-20T06:56:16.127Z,22.40
2023-01-20T06:57:18.090Z,25.60
2023-01-20T06:58:19.768Z,25.00
2023-01-20T06:59:21.511Z,20.50
2023-01-20T07:00:25.837Z,18.70
2023-01-20T07:01:29.800Z,12.40
2023-01-20T07:02:31.777Z,11.57
2023-01-20T07:03:33.530Z,15.23
2023-01-20T07:04:35.338Z,12.93
2023-01-20T07:05:37.127Z,12.23
2023-01-20T07:06:40.786Z,13.35
2023-01-20T07:07:45.783Z,10.88
2023-01-20T07:08:47.524Z,14.27
2023-01-20T07:09:49.225Z,10.23
2023-01-20T07:10:50.895Z,11.52
2023-01-20T07:11:52.691Z,14.10
2023-01-20T07:12:54.510Z,9.27
2023-01-20T07:13:56.200Z,10.85
2023-01-20T07:14:57.915Z,10.57
2023-01-20T07:15:59.751Z,11.70
2023-01-20T07:17:01.500Z,11.65
2023-01-20T07:18:03.306Z,11.43
2023-01-20T07:19:05.583Z,11.80
2023-01-20T07:20:07.719Z,8.10
2023-01-20T07:21:12.313Z,9.70
2023-01-20T07:22:14.017Z,8.30
2023-01-20T07:23:15.791Z,8.10
2023-01-20T07:24:17.492Z,8.02
2023-01-20T07:25:19.206Z,11.30
2023-01-20T07:26:24.224Z,9.45
2023-01-20T07:27:25.955Z,9.93
2023-01-20T07:28:28.598Z,10.25
2023-01-20T07:29:30.321Z,9.65
2023-01-20T07:30:32.058Z,8.73
2023-01-20T07:31:33.867Z,11.38
2023-01-20T07:32:35.748Z,11.27
2023-01-20T07:33:38.503Z,12.17
2023-01-20T07:34:40.239Z,12.95
2023-01-20T07:35:42.058Z,11.25
2023-01-20T07:36:43.725Z,20.98
2023-01-20T07:37:45.401Z,27.45
2023-01-20T07:38:49.027Z,21.45
2023-01-20T07:39:50.788Z,33.65
2023-01-20T07:40:52.599Z,16.73
2023-01-20T07:41:54.467Z,15.43
2023-01-20T07:42:56.331Z,12.95
2023-01-20T07:43:58.039Z,12.57
2023-01-20T07:44:59.927Z,11.48
2023-01-20T07:46:04.227Z,9.68
2023-01-20T07:47:06.005Z,15.32
2023-01-20T07:48:07.899Z,21.92
2023-01-20T07:49:12.410Z,17.20
2023-01-20T07:50:14.286Z,11.40
2023-01-20T07:51:16.641Z,8.82
2023-01-20T07:52:18.337Z,10.88
2023-01-20T07:53:20.046Z,13.40
2023-01-20T07:54:21.846Z,14.10
2023-01-20T07:55:25.182Z,12.10
2023-01-20T07:56:28.410Z,11.13
2023-01-20T07:57:30.324Z,9.45
2023-01-20T07:58:32.492Z,9.13
2023-01-20T07:59:34.346Z,8.93
2023-01-20T08:00:36.245Z,8.68
2023-01-20T08:01:38.162Z,10.52
2023-01-20T08:02:40.418Z,8.95
2023-01-20T08:03:43.011Z,8.85
2023-01-20T08:04:44.848Z,10.50
2023-01-20T08:05:49.119Z,11.27
2023-01-20T08:06:50.920Z,7.72
2023-01-20T08:07:52.813Z,7.18
2023-01-20T08:08:56.633Z,5.60
2023-01-20T08:10:00.270Z,5.47
2023-01-20T08:11:02.867Z,5.80
2023-01-20T08:12:04.890Z,7.65
2023-01-20T08:13:06.697Z,6.88
2023-01-20T08:14:08.465Z,9.77
2023-01-20T08:15:10.969Z,10.77
2023-01-20T08:16:15.044Z,12.48
2023-01-20T08:17:16.808Z,14.32
2023-01-20T08:18:18.560Z,11.20
2023-01-20T08:19:20.245Z,13.55
2023-01-20T08:20:22.635Z,10.07
2023-01-20T08:21:27.353Z,9.82
2023-01-20T08:22:29.058Z,5.80
2023-01-20T08:23:30.775Z,8.77
2023-01-20T08:24:32.622Z,6.57
2023-01-20T08:25:34.411Z,4.93
2023-01-20T08:26:36.820Z,8.80
2023-01-20T08:27:38.607Z,5.68
2023-01-20T08:28:40.555Z,5.82
2023-01-20T08:29:42.235Z,5.07
2023-01-20T08:30:43.999Z,2.85
2023-01-20T08:31:45.948Z,3.08
2023-01-20T08:32:47.897Z,5.13
2023-01-20T08:33:53.462Z,5.63
2023-01-20T08:34:55.136Z,8.15
2023-01-20T08:35:56.841Z,4.70
2023-01-20T08:36:58.599Z,7.03
2023-01-20T08:38:00.264Z,10.20
2023-01-20T08:39:04.129Z,8.65
2023-01-20T08:40:10.097Z,7.03
2023-01-20T08:41:33.672Z,4.88
2023-01-20T08:42:37.067Z,5.18
2023-01-20T08:43:38.880Z,5.75
2023-01-20T08:44:40.578Z,6.72
2023-01-20T08:45:42.371Z,6.10
2023-01-20T08:46:45.312Z,8.07
2023-01-20T08:47:47.116Z,8.85
2023-01-20T08:48:50.041Z,13.38
2023-01-20T08:49:53.813Z,7.43
2023-01-20T08:50:55.679Z,13.77
2023-01-20T08:51:57.345Z,7.85
2023-01-20T08:52:59.070Z,4.25
2023-01-20T08:54:01.220Z,2.38
2023-01-20T08:55:03.582Z,3.50
2023-01-20T08:56:06.603Z,3.05
2023-01-20T08:57:08.312Z,2.53
2023-01-20T08:58:10.067Z,5.70
2023-01-20T08:59:11.951Z,5.35
2023-01-20T09:00:14.270Z,5.88
2023-01-20T09:01:21.936Z,7.82
2023-01-20T09:02:24.126Z,5.60
2023-01-20T09:03:27.149Z,4.55
2023-01-20T09:04:28.931Z,4.32
2023-01-20T09:05:30.837Z,5.70
2023-01-20T09:06:41.921Z,7.53
2023-01-20T09:07:43.655Z,7.77
2023-01-20T09:08:45.794Z,6.85
2023-01-20T09:09:47.629Z,6.60
2023-01-20T09:10:49.389Z,4.60
2023-01-20T09:11:51.397Z,4.20
2023-01-20T09:12:53.325Z,4.25
2023-01-20T09:13:55.079Z,7.30
2023-01-20T09:14:56.953Z,6.72
2023-01-20T09:15:58.786Z,4.10
2023-01-20T09:17:00.629Z,13.25
2023-01-20T09:18:02.485Z,10.03
2023-01-20T09:19:04.278Z,9.63
2023-01-20T09:20:06.604Z,7.60
2023-01-20T09:21:09.412Z,13.80
2023-01-20T09:22:11.201Z,3.38
2023-01-20T09:23:12.915Z,9.98
2023-01-20T09:24:15.168Z,7.43
2023-01-20T09:25:17.459Z,4.20
2023-01-20T09:26:34.406Z,3.33
2023-01-20T09:27:37.083Z,7.43
2023-01-20T09:28:38.796Z,5.30
2023-01-20T09:29:40.734Z,8.90
2023-01-20T09:30:42.528Z,8.05
2023-01-20T09:31:56.056Z,7.80
2023-01-20T09:32:58.112Z,4.13
2023-01-20T09:34:01.582Z,3.75
2023-01-20T09:35:03.525Z,2.53
2023-01-20T09:36:07.461Z,1.15
2023-01-20T09:37:09.433Z,4.40
2023-01-20T09:38:11.378Z,3.20
2023-01-20T09:39:14.626Z,3.87
2023-01-20T09:40:26.042Z,3.83
2023-01-20T09:41:30.979Z,4.32
2023-01-20T09:42:36.154Z,5.30
2023-01-20T09:43:53.659Z,4.50
2023-01-20T09:45:26.539Z,4.43
2023-01-20T09:46:34.008Z,4.43
2023-01-20T09:47:46.267Z,6.53
2023-01-20T09:49:08.713Z,5.40
2023-01-20T09:50:34.645Z,2.33
2023-01-20T09:52:01.356Z,5.77
2023-01-20T09:53:08.781Z,5.57
2023-01-20T09:54:18.747Z,6.50
2023-01-20T09:55:26.725Z,3.65
2023-01-20T09:56:31.404Z,5.40
2023-01-20T09:57:40.882Z,4.47
2023-01-20T09:59:02.412Z,5.53
2023-01-20T10:00:14.915Z,7.03
2023-01-20T10:01:31.559Z,2.83
2023-01-20T10:02:36.148Z,1.70
2023-01-20T10:03:40.877Z,3.93
2023-01-20T10:04:48.614Z,2.45
2023-01-20T10:05:55.504Z,2.78
2023-01-20T10:07:03.292Z,2.25
2023-01-20T10:08:13.884Z,2.83
2023-01-20T10:09:33.772Z,2.42
2023-01-20T10:10:43.054Z,2.78
2023-01-20T10:11:47.633Z,3.20
2023-01-20T10:12:57.800Z,3.78
2023-01-20T10:14:35.366Z,5.15
2023-01-20T10:15:42.777Z,2.70
2023-01-20T10:17:07.368Z,7.00
2023-01-20T10:18:22.018Z,4.95
2023-01-20T10:19:33.186Z,5.32
2023-01-20T10:20:58.575Z,6.90
2023-01-20T10:22:34.564Z,4.10
2023-01-20T10:23:50.653Z,4.43
2023-01-20T10:25:00.463Z,4.38
2023-01-20T10:26:10.367Z,5.25
2023-01-20T10:27:12.273Z,6.25
2023-01-20T10:28:26.974Z,4.50
2023-01-20T10:29:34.953Z,6.25
2023-01-20T10:30:37.638Z,2.90
2023-01-20T10:31:57.614Z,8.10
2023-01-20T10:33:08.440Z,3.17
2023-01-20T10:34:15.598Z,4.07
2023-01-20T10:35:25.130Z,5.60
2023-01-20T10:36:31.556Z,12.27
2023-01-20T10:37:35.298Z,11.05
2023-01-20T10:38:52.130Z,5.88
2023-01-20T10:39:59.085Z,4.07
2023-01-20T10:41:13.947Z,4.75
2023-01-20T10:42:19.353Z,8.27
2023-01-20T10:43:21.531Z,8.15
2023-01-20T10:44:23.682Z,6.53
2023-01-20T10:45:38.472Z,5.20
2023-01-20T10:46:46.059Z,7.47
2023-01-20T10:48:13.858Z,8.45
2023-01-20T10:49:48.444Z,11.57
2023-01-20T10:50:54.912Z,11.73
2023-01-20T10:52:02.342Z,14.30
2023-01-20T10:53:21.437Z,11.35
2023-01-20T10:54:34.897Z,8.88
2023-01-20T10:56:02.240Z,17.88
2023-01-20T10:57:06.129Z,9.38
2023-01-20T10:58:21.383Z,5.22
2023-01-20T10:59:45.179Z,5.03
2023-01-20T11:00:47.280Z,4.07
2023-01-20T11:02:02.504Z,4.30
2023-01-20T11:03:15.096Z,4.78
2023-01-20T11:04:21.461Z,5.83
2023-01-20T11:05:27.795Z,4.88
2023-01-20T11:06:29.672Z,5.03
2023-01-20T11:07:33.359Z,7.15
2023-01-20T11:08:35.659Z,10.15
2023-01-20T11:09:38.323Z,13.98
2023-01-20T11:10:40.172Z,9.20
2023-01-20T11:11:42.302Z,14.35
2023-01-20T11:12:47.583Z,9.10
2023-01-20T11:13:50.255Z,9.38
2023-01-20T11:14:53.951Z,12.47
2023-01-20T11:16:04.197Z,22.40
2023-01-20T11:17:13.064Z,13.93
2023-01-20T11:18:15.093Z,12.38
2023-01-20T11:19:17.417Z,5.15
2023-01-20T11:20:22.170Z,7.32
2023-01-20T11:21:26.372Z,7.53
2023-01-20T11:22:34.563Z,9.32
2023-01-20T11:23:49.778Z,4.40
2023-01-20T11:24:56.623Z,6.80
2023-01-20T11:26:02.289Z,7.37
2023-01-20T11:27:06.454Z,7.68
2023-01-20T11:28:18.387Z,7.45
2023-01-20T11:29:20.456Z,10.23
2023-01-20T11:30:34.562Z,10.85
2023-01-20T11:31:52.653Z,6.97
2023-01-20T11:33:30.099Z,5.68
2023-01-20T11:34:36.292Z,4.20
2023-01-20T11:35:38.458Z,4.43
2023-01-20T11:36:40.333Z,4.00
2023-01-20T11:37:42.279Z,3.80
2023-01-20T11:38:47.313Z,3.08
2023-01-20T11:40:02.608Z,3.92
2023-01-20T11:41:04.845Z,2.65
2023-01-20T11:42:18.839Z,4.13
2023-01-20T11:43:37.608Z,2.22
2023-01-20T11:44:43.732Z,1.15
2023-01-20T11:45:45.799Z,3.42
2023-01-20T11:46:47.791Z,3.45
2023-01-20T11:48:17.307Z,1.23
2023-01-20T11:49:21.753Z,1.27
2023-01-20T11:50:38.231Z,0.80
2023-01-20T11:51:55.420Z,0.88
2023-01-20T11:53:31.889Z,0.85
2023-01-20T11:54:35.857Z,1.73
2023-01-20T11:56:01.052Z,0.60
2023-01-20T11:57:06.301Z,4.05
2023-01-20T11:58:26.791Z,2.10
2023-01-20T11:59:31.181Z,1.58
2023-01-20T12:00:42.073Z,3.08
2023-01-20T12:02:00.762Z,1.93
2023-01-20T12:03:04.058Z,0.80
2023-01-20T12:04:51.597Z,1.13
2023-01-20T12:06:20.784Z,3.03
2023-01-20T12:07:41.844Z,4.10
2023-01-20T12:09:01.071Z,4.60
2023-01-20T12:10:21.561Z,8.07
2023-01-20T12:11:59.453Z,6.57
2023-01-20T12:13:19.625Z,2.90
2023-01-20T12:14:29.477Z,1.48
2023-01-20T12:15:37.976Z,3.17
2023-01-20T12:16:40.565Z,1.40
2023-01-20T12:18:04.109Z,2.60
2023-01-20T12:19:18.309Z,3.08
2023-01-20T12:20:53.644Z,0.65
2023-01-20T12:22:04.553Z,1.38
2023-01-20T12:23:25.756Z,6.60
2023-01-20T12:24:43.185Z,1.92
2023-01-20T12:25:58.460Z,1.95
2023-01-20T12:27:01.565Z,0.57
2023-01-20T12:28:48.616Z,0.97
2023-01-20T12:29:55.262Z,0.45
2023-01-20T12:31:11.689Z,0.57
2023-01-20T12:32:14.425Z,2.05
2023-01-20T12:33:22.468Z,0.40
2023-01-20T12:34:29.514Z,0.38
2023-01-20T12:35:38.384Z,0.63
2023-01-20T12:37:12.659Z,1.13
2023-01-20T12:38:19.710Z,2.05
2023-01-20T12:39:30.878Z,0.85
2023-01-20T12:40:55.623Z,2.97
2023-01-20T12:42:18.924Z,0.70
2023-01-20T12:43:29.625Z,2.80
2023-01-20T12:44:42.513Z,3.13
2023-01-20T12:45:56.974Z,1.27
2023-01-20T12:47:10.872Z,1.77
2023-01-20T12:48:31.324Z,0.77
2023-01-20T12:50:04.304Z,1.50
2023-01-20T12:51:15.080Z,2.65
2023-01-20T12:52:20.167Z,2.38
2023-01-20T12:53:43.716Z,1.60
2023-01-20T12:55:13.288Z,1.80
2023-01-20T12:56:39.364Z,2.42
2023-01-20T12:57:51.966Z,0.95
2023-01-20T12:58:53.679Z,0.82
2023-01-20T13:00:23.071Z,3.28
2023-01-20T13:01:43.733Z,2.50
2023-01-20T13:03:15.189Z,3.38
2023-01-20T13:04:22.845Z,4.85
2023-01-20T13:06:01.698Z,6.63
2023-01-20T13:07:34.089Z,5.63
2023-01-20T13:09:15.130Z,3.50
2023-01-20T13:10:25.896Z,1.83
2023-01-20T13:11:58.034Z,3.95
2023-01-20T13:13:24.272Z,6.97
2023-01-20T13:14:47.733Z,5.65
2023-01-20T13:16:28.325Z,6.20
2023-01-20T13:17:48.778Z,7.47
2023-01-20T13:18:53.859Z,7.07
2023-01-20T13:19:59.800Z,6.18
2023-01-20T13:21:01.871Z,1.93
2023-01-20T13:22:20.432Z,2.25
2023-01-20T13:23:32.759Z,2.35
2023-01-20T13:24:34.947Z,2.22
2023-01-20T13:25:39.371Z,1.23
2023-01-20T13:26:42.021Z,1.40
2023-01-20T13:27:45.802Z,2.63
2023-01-20T13:28:55.573Z,5.50
2023-01-20T13:29:59.700Z,4.63
2023-01-20T13:31:31.213Z,4.45
2023-01-20T13:32:47.043Z,4.87
2023-01-20T13:33:49.123Z,5.25
2023-01-20T13:34:50.941Z,4.65
2023-01-20T13:35:53.153Z,6.53
2023-01-20T13:37:04.816Z,9.52
2023-01-20T13:38:18.852Z,6.18
2023-01-20T13:39:29.958Z,5.82
2023-01-20T13:40:38.299Z,3.28
2023-01-20T13:41:53.071Z,4.03
2023-01-20T13:42:54.893Z,3.65
2023-01-20T13:43:56.870Z,2.93
2023-01-20T13:45:14.328Z,4.45
2023-01-20T13:46:36.396Z,3.60
2023-01-20T13:47:55.312Z,5.60
2023-01-20T13:49:14.119Z,4.50
2023-01-20T13:50:34.124Z,4.82
2023-01-20T13:51:39.891Z,7.00
2023-01-20T13:52:52.624Z,4.97
2023-01-20T13:53:54.846Z,3.53
2023-01-20T13:54:56.628Z,4.93
2023-01-20T13:56:01.404Z,4.80
2023-01-20T13:57:21.472Z,7.15
2023-01-20T13:58:34.883Z,4.45
2023-01-20T13:59:36.954Z,4.70
2023-01-20T14:00:39.169Z,4.78
2023-01-20T14:01:41.161Z,2.55
2023-01-20T14:02:43.117Z,3.60
2023-01-20T14:04:01.023Z,2.58
2023-01-20T14:05:02.867Z,2.40
2023-01-20T14:06:07.287Z,3.65
2023-01-20T14:07:22.684Z,1.90
2023-01-20T14:08:27.456Z,2.40
2023-01-20T14:09:30.718Z,2.75
2023-01-20T14:10:34.598Z,3.63
2023-01-20T14:11:50.140Z,3.25
2023-01-20T14:12:54.054Z,3.53
2023-01-20T14:14:02.241Z,4.10
2023-01-20T14:15:09.065Z,2.70
2023-01-20T14:16:25.296Z,4.43
2023-01-20T14:17:27.419Z,2.22
2023-01-20T14:18:30.858Z,3.17
2023-01-20T14:19:35.237Z,3.92
2023-01-20T14:20:37.366Z,2.25
2023-01-20T14:21:41.515Z,2.70
2023-01-20T14:22:45.940Z,2.25
2023-01-20T14:23:54.331Z,1.60
2023-01-20T14:24:58.758Z,2.50
2023-01-20T14:26:11.256Z,1.50
2023-01-20T14:27:24.378Z,1.55
2023-01-20T14:28:27.481Z,2.03
2023-01-20T14:29:29.809Z,3.30
2023-01-20T14:30:32.259Z,1.92
2023-01-20T14:31:37.782Z,4.47
2023-01-20T14:32:41.528Z,3.70
2023-01-20T14:33:48.673Z,3.53
2023-01-20T14:34:55.867Z,4.95
2023-01-20T14:35:58.183Z,3.42
2023-01-20T14:37:18.486Z,4.00
2023-01-20T14:38:22.025Z,4.55
2023-01-20T14:39:27.498Z,3.58
2023-01-20T14:40:35.043Z,3.43
2023-01-20T14:41:56.004Z,2.25
2023-01-20T14:43:03.654Z,3.35
2023-01-20T14:44:17.315Z,2.70
2023-01-20T14:45:21.103Z,3.08
2023-01-20T14:46:25.297Z,5.05
2023-01-20T14:47:30.263Z,3.05
2023-01-20T14:48:34.988Z,3.88
2023-01-20T14:49:38.911Z,4.97
2023-01-20T14:50:42.832Z,4.03
2023-01-20T14:51:46.804Z,3.30
2023-01-20T14:52:48.905Z,4.13
2023-01-20T14:54:28.309Z,4.45
2023-01-20T14:55:37.174Z,3.97
2023-01-20T14:56:40.041Z,4.63
2023-01-20T14:57:43.511Z,6.07
2023-01-20T14:58:51.044Z,5.72
2023-01-20T15:00:20.499Z,4.03
2023-01-20T15:01:25.747Z,3.08
2023-01-20T15:02:32.380Z,3.47
2023-01-20T15:03:34.463Z,4.17